Terminal Aerodrome Forecast
Issued by NWS Lake Charles, LA

Home | Current Version | Previous Version | Text Only | Print | Product List | Glossary On
Versions: 1 2 3 4 5 6 7 8 9 10 11 12 13 14 15 16 17 18 19 20 21 22 23
000
FTUS44 KLCH 300500
TAFARA
TAF
KARA 300522Z 3006/0106 VRB05KT P6SM BKN025 BKN035 OVC045
      TEMPO 3011/3014 3SM BR BKN007 BKN020
     FM301500 09005KT P6SM SCT025=

USA.gov is the U.S. government's official web portal to all federal, state and local government web resources and services.